createdAt,value
2022-12-29T00:00:53.587Z,102014.09
2022-12-29T00:03:56.128Z,102016.66
2022-12-29T00:06:58.675Z,102009.56
2022-12-29T00:10:00.866Z,102014.09
2022-12-29T00:13:21.549Z,102015.53
2022-12-29T00:16:24.005Z,102003.44
2022-12-29T00:19:55.470Z,102002.31
2022-12-29T00:23:17.077Z,101999.34
2022-12-29T00:26:39.180Z,102016.94
2022-12-29T00:30:00.128Z,102004.84
2022-12-29T00:33:20.484Z,102018.47
2022-12-29T00:36:37.058Z,102024.31
2022-12-29T00:39:59.797Z,102009.13
2022-12-29T00:43:20.353Z,102015.78
2022-12-29T00:46:22.476Z,101998.31
2022-12-29T00:49:34.472Z,101996.06
2022-12-29T00:52:36.835Z,101996.81
2022-12-29T00:55:39.564Z,102010.03
2022-12-29T00:58:41.715Z,101993.53
2022-12-29T01:01:47.371Z,101990.16
2022-12-29T01:04:50.988Z,101973.56
2022-12-29T01:07:53.028Z,101964.22
2022-12-29T01:11:12.365Z,101986.97
2022-12-29T01:14:14.732Z,101976.69
2022-12-29T01:17:16.961Z,101977.59
2022-12-29T01:20:19.307Z,101977.88
2022-12-29T01:23:21.382Z,101965.69
2022-12-29T01:26:23.496Z,101962.94
2022-12-29T01:29:27.669Z,101978.25
2022-12-29T01:32:29.734Z,101963.09
2022-12-29T01:35:32.815Z,101958.59
2022-12-29T01:38:37.189Z,101962.69
2022-12-29T01:41:42.419Z,101966.03
2022-12-29T01:44:59.445Z,101969.38
2022-12-29T01:48:06.392Z,101971.66
2022-12-29T01:51:08.710Z,101946.78
2022-12-29T01:54:20.931Z,101951.38
2022-12-29T01:57:29.440Z,101949.53
2022-12-29T02:00:31.839Z,101954.22
2022-12-29T02:03:35.559Z,101946.69
2022-12-29T02:06:53.098Z,101961.31
2022-12-29T02:09:57.194Z,101935.53
2022-12-29T02:13:00.340Z,101952.41
2022-12-29T02:16:02.489Z,101947.31
2022-12-29T02:19:50.402Z,101948.88
2022-12-29T02:23:17.261Z,101955.06
2022-12-29T02:26:26.074Z,101945.88
2022-12-29T02:29:41.335Z,101945.25
2022-12-29T02:32:52.673Z,101942.78
2022-12-29T02:36:09.063Z,101931.84
2022-12-29T02:39:33.130Z,101941.34
2022-12-29T02:42:54.690Z,101943.25
2022-12-29T02:46:05.918Z,101936.53
2022-12-29T02:49:16.464Z,101934.47
2022-12-29T02:52:29.399Z,101924.34
2022-12-29T02:55:31.454Z,101924.81
2022-12-29T02:58:33.848Z,101907.25
2022-12-29T03:02:13.435Z,101928.53
2022-12-29T03:05:42.675Z,101915.06
2022-12-29T03:08:53.665Z,101916.22
2022-12-29T03:12:15.728Z,101926.78
2022-12-29T03:16:01.392Z,101916.22
2022-12-29T03:19:20.480Z,101919.13
2022-12-29T03:22:32.585Z,101926.41
2022-12-29T03:25:46.987Z,101926.91
2022-12-29T03:28:54.298Z,101921.72
2022-12-29T03:32:01.255Z,101912.22
2022-12-29T03:35:05.312Z,101908.84
2022-12-29T03:38:34.857Z,101897.91
2022-12-29T03:41:38.099Z,101896.13
2022-12-29T03:44:42.591Z,101912.31
2022-12-29T03:47:46.021Z,101903.97
2022-12-29T03:50:48.752Z,101894.78
2022-12-29T03:53:51.417Z,101882.13
2022-12-29T03:56:53.524Z,101895.44
2022-12-29T04:00:07.995Z,101880.25
2022-12-29T04:03:19.631Z,101905.53
2022-12-29T04:06:23.250Z,101896.44
2022-12-29T04:09:32.436Z,101897.00
2022-12-29T04:12:35.142Z,101893.63
2022-12-29T04:15:38.215Z,101892.50
2022-12-29T04:18:40.495Z,101885.31
2022-12-29T04:21:42.937Z,101885.03
2022-12-29T04:24:45.248Z,101889.09
2022-12-29T04:27:47.895Z,101885.72
2022-12-29T04:31:08.789Z,101872.31
2022-12-29T04:34:14.617Z,101873.22
2022-12-29T04:37:16.818Z,101885.78
2022-12-29T04:40:19.621Z,101893.00
2022-12-29T04:43:23.199Z,101898.38
2022-12-29T04:46:48.121Z,101877.38
2022-12-29T04:50:05.742Z,101890.31
2022-12-29T04:53:18.020Z,101915.97
2022-12-29T04:56:21.367Z,101902.09
2022-12-29T04:59:24.168Z,101915.94
2022-12-29T05:02:29.942Z,101915.88
2022-12-29T05:05:32.700Z,101920.53
2022-12-29T05:08:35.700Z,101911.81
2022-12-29T05:11:38.989Z,101911.16
2022-12-29T05:14:41.570Z,101927.66
2022-12-29T05:17:43.726Z,101920.19
2022-12-29T05:20:48.415Z,101921.06
2022-12-29T05:23:50.932Z,101917.94
2022-12-29T05:26:53.433Z,101922.78
2022-12-29T05:30:15.030Z,101926.72
2022-12-29T05:33:18.662Z,101939.44
2022-12-29T05:36:21.067Z,101930.94
2022-12-29T05:39:33.583Z,101925.31
2022-12-29T05:42:38.605Z,101917.91
2022-12-29T05:45:51.299Z,101913.03
2022-12-29T05:49:20.381Z,101935.03
2022-12-29T05:52:32.762Z,101925.72
2022-12-29T05:55:36.131Z,101948.94
2022-12-29T05:58:38.548Z,101930.41
2022-12-29T06:01:41.569Z,101922.09
2022-12-29T06:04:43.797Z,101937.72
2022-12-29T06:07:46.954Z,101915.16
2022-12-29T06:10:51.766Z,101912.44
2022-12-29T06:13:54.184Z,101917.22
2022-12-29T06:16:56.433Z,101919.31
2022-12-29T06:19:59.781Z,101944.81
2022-12-29T06:23:02.131Z,101936.72
2022-12-29T06:26:05.398Z,101943.25
2022-12-29T06:29:09.740Z,101915.25
2022-12-29T06:32:12.317Z,101925.63
2022-12-29T06:35:19.651Z,101923.97
2022-12-29T06:38:26.999Z,101926.09
2022-12-29T06:41:32.328Z,101914.41
2022-12-29T06:44:49.480Z,101925.41
2022-12-29T06:47:51.539Z,101921.75
2022-12-29T06:50:54.789Z,101927.22
2022-12-29T06:53:57.202Z,101929.56
2022-12-29T06:57:00.586Z,101916.50
2022-12-29T07:00:04.268Z,101930.00
2022-12-29T07:03:06.590Z,101920.63
2022-12-29T07:06:08.729Z,101918.75
2022-12-29T07:09:11.308Z,101933.03
2022-12-29T07:12:13.488Z,101925.06
2022-12-29T07:15:16.343Z,101928.63
2022-12-29T07:18:18.591Z,101931.13
2022-12-29T07:21:20.927Z,101924.75
2022-12-29T07:24:23.055Z,101938.63
2022-12-29T07:27:25.063Z,101938.50
2022-12-29T07:30:27.666Z,101938.97
2022-12-29T07:33:30.795Z,101941.69
2022-12-29T07:36:34.881Z,101933.00
2022-12-29T07:39:37.064Z,101933.09
2022-12-29T07:42:39.430Z,101925.25
2022-12-29T07:45:44.234Z,101933.88
2022-12-29T07:48:46.392Z,101935.56
2022-12-29T07:51:51.068Z,101925.63
2022-12-29T07:54:53.493Z,101925.75
2022-12-29T07:57:56.467Z,101931.19
2022-12-29T08:00:58.918Z,101930.69
2022-12-29T08:04:01.298Z,101925.78
2022-12-29T08:07:04.187Z,101934.22
2022-12-29T08:10:07.007Z,101904.22
2022-12-29T08:13:09.198Z,101921.91
2022-12-29T08:16:11.407Z,101912.88
2022-12-29T08:19:19.905Z,101916.59
2022-12-29T08:22:22.077Z,101900.28
2022-12-29T08:25:24.277Z,101893.19
2022-12-29T08:28:26.972Z,101904.75
2022-12-29T08:31:29.689Z,101896.69
2022-12-29T08:34:32.960Z,101897.94
2022-12-29T08:37:35.216Z,101887.53
2022-12-29T08:40:37.603Z,101886.50
2022-12-29T08:43:39.925Z,101882.50
2022-12-29T08:46:42.305Z,101876.06
2022-12-29T08:49:44.373Z,101865.22
2022-12-29T08:52:46.559Z,101871.50
2022-12-29T08:56:04.024Z,101885.38
2022-12-29T08:59:11.893Z,101857.91
2022-12-29T09:02:20.325Z,101877.94
2022-12-29T09:05:26.609Z,101849.44
2022-12-29T09:08:29.056Z,101865.88
2022-12-29T09:11:31.277Z,101863.19
2022-12-29T09:14:33.544Z,101834.13
2022-12-29T09:17:45.682Z,101827.84
2022-12-29T09:20:48.606Z,101840.22
2022-12-29T09:23:51.549Z,101831.28
2022-12-29T09:26:53.476Z,101816.28
2022-12-29T09:29:55.549Z,101828.84
2022-12-29T09:32:58.340Z,101829.94
2022-12-29T09:36:00.593Z,101830.00
2022-12-29T09:39:02.665Z,101825.97
2022-12-29T09:42:10.368Z,101835.53
2022-12-29T09:45:20.162Z,101836.00
2022-12-29T09:48:28.541Z,101830.09
2022-12-29T09:51:32.637Z,101828.06
2022-12-29T09:54:43.470Z,101795.03
2022-12-29T09:58:12.425Z,101818.00
2022-12-29T10:01:35.454Z,101809.59
2022-12-29T10:04:45.448Z,101792.88
2022-12-29T10:08:15.679Z,101805.63
2022-12-29T10:11:19.490Z,101807.81
2022-12-29T10:14:38.388Z,101788.53
2022-12-29T10:27:15.021Z,101787.91
2022-12-29T10:30:17.527Z,101772.84
2022-12-29T10:33:37.591Z,101782.47
2022-12-29T10:36:50.538Z,101774.88
2022-12-29T10:39:54.521Z,101766.06
2022-12-29T10:47:32.363Z,101749.13
2022-12-29T10:50:35.060Z,101748.94
2022-12-29T10:53:46.408Z,101744.00
2022-12-29T10:57:26.970Z,101752.16
2022-12-29T11:00:31.170Z,101736.75
2022-12-29T11:03:38.913Z,101750.63
2022-12-29T11:11:33.403Z,101711.97
2022-12-29T11:18:14.536Z,101751.25
2022-12-29T11:21:31.951Z,101747.00
2022-12-29T11:24:34.947Z,101739.97
2022-12-29T11:27:37.027Z,101745.50
2022-12-29T11:30:39.559Z,101737.53
2022-12-29T11:33:41.909Z,101731.94
2022-12-29T11:36:44.090Z,101710.91
2022-12-29T11:39:58.748Z,101719.09
2022-12-29T11:43:05.873Z,101722.84
2022-12-29T11:46:14.918Z,101715.59
2022-12-29T11:49:24.940Z,101709.97
2022-12-29T11:52:34.300Z,101716.69
2022-12-29T11:55:36.417Z,101718.56
2022-12-29T11:58:39.804Z,101704.19
2022-12-29T12:01:44.323Z,101669.28
2022-12-29T12:04:50.431Z,101689.63
2022-12-29T12:08:11.709Z,101684.84
2022-12-29T12:11:25.470Z,101673.69
2022-12-29T12:14:44.946Z,101664.38
2022-12-29T12:18:33.423Z,101665.41
2022-12-29T12:21:46.039Z,101662.84
2022-12-29T12:25:13.917Z,101667.25
2022-12-29T12:28:27.072Z,101657.13
2022-12-29T12:31:43.337Z,101663.03
2022-12-29T12:34:48.783Z,101646.63
2022-12-29T12:38:19.846Z,101643.38
2022-12-29T12:41:47.493Z,101654.91
2022-12-29T12:45:13.203Z,101649.81
2022-12-29T12:48:42.450Z,101648.47
2022-12-29T12:52:08.912Z,101648.47
2022-12-29T12:55:35.232Z,101654.22
2022-12-29T12:58:58.258Z,101650.69
2022-12-29T13:02:22.228Z,101646.06
2022-12-29T13:05:36.492Z,101653.72
2022-12-29T13:09:12.482Z,101657.59
2022-12-29T13:12:20.292Z,101658.94
2022-12-29T13:15:45.363Z,101661.78
2022-12-29T13:19:11.472Z,101659.91
2022-12-29T13:22:40.050Z,101662.44
2022-12-29T13:25:54.746Z,101664.66
2022-12-29T13:29:18.544Z,101669.72
2022-12-29T13:32:33.730Z,101667.31
2022-12-29T13:35:47.028Z,101672.09
2022-12-29T13:38:57.218Z,101667.66
2022-12-29T13:42:01.674Z,101661.69
2022-12-29T13:45:08.212Z,101674.69
2022-12-29T13:48:26.492Z,101654.72
2022-12-29T13:51:30.209Z,101665.38
2022-12-29T13:54:32.488Z,101670.94
2022-12-29T13:58:00.983Z,101659.75
2022-12-29T14:01:39.257Z,101651.34
2022-12-29T14:05:01.738Z,101645.44
2022-12-29T14:08:07.563Z,101646.06
2022-12-29T14:11:15.489Z,101643.16
2022-12-29T14:14:22.669Z,101619.06
2022-12-29T14:17:25.058Z,101647.66
2022-12-29T14:20:27.436Z,101632.00
2022-12-29T14:23:37.260Z,101642.22
2022-12-29T14:26:39.327Z,101640.34
2022-12-29T14:29:47.241Z,101633.56
2022-12-29T14:33:14.233Z,101654.88
2022-12-29T14:36:20.706Z,101641.69
2022-12-29T14:39:34.620Z,101644.38
2022-12-29T14:42:41.533Z,101641.13
2022-12-29T14:45:44.108Z,101613.69
2022-12-29T14:48:46.447Z,101650.91
2022-12-29T14:51:50.107Z,101629.69
2022-12-29T14:55:19.004Z,101627.97
2022-12-29T14:58:58.389Z,101638.88
2022-12-29T15:02:07.385Z,101627.47
2022-12-29T15:05:29.365Z,101634.81
2022-12-29T15:08:39.951Z,101651.13
2022-12-29T15:11:45.214Z,101647.22
2022-12-29T15:14:58.067Z,101648.44
2022-12-29T15:18:15.540Z,101644.00
2022-12-29T15:21:26.291Z,101640.72
2022-12-29T15:24:37.965Z,101648.59
2022-12-29T15:31:06.987Z,101639.25
2022-12-29T15:34:14.828Z,101648.78
2022-12-29T15:37:24.864Z,101644.53
2022-12-29T15:40:32.638Z,101642.06
2022-12-29T15:43:49.878Z,101647.47
2022-12-29T15:46:53.240Z,101645.47
2022-12-29T15:50:36.513Z,101645.75
2022-12-29T15:53:39.116Z,101650.59
2022-12-29T15:56:42.346Z,101629.94
2022-12-29T15:59:52.291Z,101635.91
2022-12-29T16:02:56.681Z,101649.69
2022-12-29T16:06:12.334Z,101626.19
2022-12-29T16:09:20.234Z,101633.84
2022-12-29T16:12:28.223Z,101617.75
2022-12-29T16:15:30.739Z,101608.00
2022-12-29T16:18:38.751Z,101606.34
2022-12-29T16:21:43.851Z,101611.97
2022-12-29T16:24:47.310Z,101608.56
2022-12-29T16:27:50.552Z,101615.63
2022-12-29T16:31:25.793Z,101630.94
2022-12-29T16:34:46.296Z,101633.34
2022-12-29T16:37:49.070Z,101618.56
2022-12-29T16:41:04.827Z,101619.69
2022-12-29T16:44:30.579Z,101617.69
2022-12-29T16:47:32.659Z,101609.34
2022-12-29T16:50:38.827Z,101604.13
2022-12-29T16:53:43.099Z,101612.94
2022-12-29T16:56:47.112Z,101617.03
2022-12-29T16:59:52.909Z,101607.88
2022-12-29T17:02:58.513Z,101614.69
2022-12-29T17:06:00.757Z,101611.38
2022-12-29T17:09:27.784Z,101616.88
2022-12-29T17:12:33.521Z,101602.13
2022-12-29T17:15:36.638Z,101604.28
2022-12-29T17:22:26.186Z,101615.25
2022-12-29T17:25:49.429Z,101611.31
2022-12-29T17:29:07.992Z,101613.84
2022-12-29T17:32:17.753Z,101602.59
2022-12-29T17:35:22.248Z,101577.53
2022-12-29T17:38:48.998Z,101613.41
2022-12-29T17:41:53.864Z,101617.06
2022-12-29T17:48:40.242Z,101610.94
2022-12-29T17:53:00.833Z,101615.09
2022-12-29T18:05:43.322Z,101606.16
2022-12-29T18:09:50.456Z,101604.72
2022-12-29T18:13:15.816Z,101578.63
2022-12-29T18:17:26.334Z,101611.97
2022-12-29T18:20:30.749Z,101607.06
2022-12-29T18:23:37.040Z,101607.19
2022-12-29T18:26:49.089Z,101605.16
2022-12-29T18:33:58.924Z,101611.16
2022-12-29T18:37:03.085Z,101598.88
2022-12-29T18:40:05.902Z,101614.53
2022-12-29T18:43:55.213Z,101612.31
2022-12-29T18:46:57.923Z,101604.66
2022-12-29T18:50:00.000Z,101619.03
2022-12-29T18:53:04.133Z,101598.50
2022-12-29T18:56:07.703Z,101618.75
2022-12-29T18:59:09.815Z,101618.06
2022-12-29T19:02:17.799Z,101620.81
2022-12-29T19:05:26.019Z,101628.59
2022-12-29T19:08:28.247Z,101626.22
2022-12-29T19:11:30.342Z,101620.09
2022-12-29T19:14:32.551Z,101621.50
2022-12-29T19:17:37.261Z,101629.09
2022-12-29T19:20:42.868Z,101627.28
2022-12-29T19:23:45.254Z,101632.25
2022-12-29T19:26:49.603Z,101631.69
2022-12-29T19:29:51.616Z,101631.69
2022-12-29T19:32:57.865Z,101641.53
2022-12-29T19:36:02.602Z,101633.59
2022-12-29T19:39:04.881Z,101642.19
2022-12-29T19:42:09.441Z,101636.81
2022-12-29T19:45:12.109Z,101633.56
2022-12-29T19:48:19.146Z,101631.53
2022-12-29T19:51:25.606Z,101640.84
2022-12-29T19:54:30.111Z,101626.63
2022-12-29T19:57:32.687Z,101621.38
2022-12-29T20:00:34.883Z,101642.38
2022-12-29T20:03:39.618Z,101652.34
2022-12-29T20:06:44.118Z,101642.19
2022-12-29T20:09:47.755Z,101641.16
2022-12-29T20:12:50.350Z,101637.03
2022-12-29T20:15:58.241Z,101637.22
2022-12-29T20:19:00.376Z,101639.16
2022-12-29T20:22:06.744Z,101639.16
2022-12-29T20:25:43.622Z,101651.47
2022-12-29T20:28:33.037Z,101652.63
2022-12-29T20:31:39.022Z,101647.38
2022-12-29T20:34:43.166Z,101644.75
2022-12-29T20:37:45.219Z,101645.16
2022-12-29T20:40:47.275Z,101641.44
2022-12-29T20:43:50.044Z,101651.16
2022-12-29T20:46:52.602Z,101639.63
2022-12-29T20:49:57.022Z,101631.56
2022-12-29T20:52:59.933Z,101632.63
2022-12-29T20:56:05.257Z,101643.41
2022-12-29T20:59:26.834Z,101634.44
2022-12-29T21:02:36.863Z,101641.19
2022-12-29T21:05:41.185Z,101640.63
2022-12-29T21:09:10.985Z,101634.34
2022-12-29T21:12:24.395Z,101634.66
2022-12-29T21:20:25.019Z,101633.00
2022-12-29T21:23:29.144Z,101625.50
2022-12-29T21:26:36.098Z,101624.69
2022-12-29T21:29:45.237Z,101617.34
2022-12-29T21:32:49.485Z,101603.53
2022-12-29T21:36:09.342Z,101619.22
2022-12-29T21:39:13.733Z,101623.31
2022-12-29T21:42:18.588Z,101622.41
2022-12-29T21:45:26.775Z,101606.66
2022-12-29T21:48:30.318Z,101603.22
2022-12-29T21:51:54.141Z,101601.63
2022-12-29T21:55:40.694Z,101616.22
2022-12-29T21:59:04.365Z,101618.09
2022-12-29T22:02:38.941Z,101610.13
2022-12-29T22:06:03.174Z,101605.72
2022-12-29T22:09:23.404Z,101618.28
2022-12-29T22:12:46.605Z,101601.25
2022-12-29T22:15:53.627Z,101608.75
2022-12-29T22:19:04.603Z,101615.53
2022-12-29T22:22:09.171Z,101614.34
2022-12-29T22:25:11.408Z,101613.63
2022-12-29T22:28:13.474Z,101602.09
2022-12-29T22:31:45.556Z,101592.63
2022-12-29T22:34:51.044Z,101585.19
2022-12-29T22:37:53.454Z,101583.47
2022-12-29T22:40:59.746Z,101580.75
2022-12-29T22:44:02.217Z,101586.38
2022-12-29T22:47:04.478Z,101577.75
2022-12-29T22:50:06.972Z,101566.91
2022-12-29T22:53:09.330Z,101564.06
2022-12-29T22:56:14.288Z,101568.28
2022-12-29T22:59:16.687Z,101575.41
2022-12-29T23:02:19.376Z,101559.94
2022-12-29T23:05:22.606Z,101565.03
2022-12-29T23:08:25.258Z,101564.84
2022-12-29T23:11:28.453Z,101563.97
2022-12-29T23:14:30.793Z,101550.44
2022-12-29T23:17:33.273Z,101556.69
2022-12-29T23:20:37.933Z,101561.56
2022-12-29T23:23:56.188Z,101560.88
2022-12-29T23:26:58.368Z,101549.84
2022-12-29T23:30:00.375Z,101544.25
2022-12-29T23:33:02.645Z,101550.13
2022-12-29T23:36:05.518Z,101557.38
2022-12-29T23:39:11.056Z,101555.47
2022-12-29T23:42:13.112Z,101539.41
2022-12-29T23:45:15.394Z,101543.94
2022-12-29T23:48:17.480Z,101540.97
2022-12-29T23:51:19.837Z,101541.41
2022-12-29T23:54:21.926Z,101559.19
2022-12-29T23:57:24.010Z,101556.03
